createdAt,value
2022-09-29T00:01:07.596Z,5.38
2022-09-29T00:03:34.455Z,3.60
2022-09-29T00:06:00.955Z,4.72
2022-09-29T00:08:32.570Z,4.68
2022-09-29T00:10:59.244Z,6.75
2022-09-29T00:13:26.004Z,4.70
2022-09-29T00:15:57.584Z,3.72
2022-09-29T00:18:24.067Z,4.22
2022-09-29T00:21:02.508Z,5.13
2022-09-29T00:23:30.058Z,4.22
2022-09-29T00:26:17.541Z,4.70
2022-09-29T00:28:52.559Z,5.85
2022-09-29T00:31:20.221Z,3.80
2022-09-29T00:33:47.202Z,6.18
2022-09-29T00:36:16.946Z,3.53
2022-09-29T00:38:45.107Z,4.03
2022-09-29T00:41:18.014Z,5.20
2022-09-29T00:43:50.977Z,5.72
2022-09-29T00:46:51.377Z,4.78
2022-09-29T00:49:25.417Z,5.25
2022-09-29T00:51:58.015Z,5.10
2022-09-29T00:54:39.898Z,3.85
2022-09-29T00:57:09.835Z,4.88
2022-09-29T00:59:58.723Z,4.35
2022-09-29T01:02:26.637Z,5.78
2022-09-29T01:04:55.058Z,6.95
2022-09-29T01:07:23.593Z,5.18
2022-09-29T01:09:53.855Z,5.63
2022-09-29T01:12:20.975Z,5.25
2022-09-29T01:14:48.370Z,4.93
2022-09-29T01:17:15.570Z,7.60
2022-09-29T01:20:05.981Z,4.95
2022-09-29T01:22:42.586Z,5.05
2022-09-29T01:25:35.082Z,7.65
2022-09-29T01:28:13.462Z,5.88
2022-09-29T01:31:05.764Z,7.18
2022-09-29T01:34:09.360Z,6.88
2022-09-29T01:36:59.813Z,5.57
2022-09-29T01:39:51.586Z,6.82
2022-09-29T01:42:22.916Z,5.57
2022-09-29T01:45:02.691Z,5.00
2022-09-29T01:47:35.303Z,7.20
2022-09-29T01:50:13.754Z,5.78
2022-09-29T01:52:51.353Z,5.57
2022-09-29T01:55:20.893Z,4.85
2022-09-29T01:57:55.868Z,5.43
2022-09-29T02:00:24.057Z,5.68
2022-09-29T02:03:35.313Z,6.50
2022-09-29T02:06:06.716Z,6.40
2022-09-29T02:08:55.488Z,6.90
2022-09-29T02:11:21.896Z,4.75
2022-09-29T02:14:03.881Z,6.68
2022-09-29T02:16:32.380Z,6.88
2022-09-29T02:19:04.188Z,7.28
2022-09-29T02:21:30.546Z,6.95
2022-09-29T02:23:57.399Z,7.65
2022-09-29T02:26:28.581Z,6.50
2022-09-29T02:28:55.724Z,6.53
2022-09-29T02:31:23.155Z,6.63
2022-09-29T02:33:49.610Z,10.43
2022-09-29T02:36:33.805Z,5.18
2022-09-29T02:39:13.163Z,5.72
2022-09-29T02:41:45.556Z,5.93
2022-09-29T02:44:41.341Z,5.88
2022-09-29T02:47:17.912Z,6.13
2022-09-29T02:50:22.090Z,9.18
2022-09-29T02:53:18.904Z,6.43
2022-09-29T02:56:23.014Z,7.07
2022-09-29T02:59:09.939Z,6.25
2022-09-29T03:01:47.550Z,6.22
2022-09-29T03:04:14.429Z,5.85
2022-09-29T03:06:40.776Z,5.88
2022-09-29T03:09:07.099Z,6.28
2022-09-29T03:11:33.484Z,6.93
2022-09-29T03:14:03.334Z,6.05
2022-09-29T03:16:29.999Z,9.07
2022-09-29T03:18:57.374Z,6.68
2022-09-29T03:21:24.091Z,6.80
2022-09-29T03:23:53.156Z,6.47
2022-09-29T03:26:26.549Z,6.03
2022-09-29T03:28:53.158Z,6.07
2022-09-29T03:31:22.580Z,6.25
2022-09-29T03:33:49.739Z,6.57
2022-09-29T03:36:16.166Z,5.63
2022-09-29T03:38:44.744Z,4.85
2022-09-29T03:41:11.094Z,5.35
2022-09-29T03:43:37.437Z,4.75
2022-09-29T03:46:03.806Z,5.55
2022-09-29T03:48:35.765Z,6.03
2022-09-29T03:51:02.628Z,5.30
2022-09-29T03:53:31.841Z,6.68
2022-09-29T03:55:58.397Z,5.30
2022-09-29T03:58:25.115Z,4.82
2022-09-29T04:00:51.565Z,5.03
2022-09-29T04:03:18.012Z,6.00
2022-09-29T04:05:50.651Z,5.72
2022-09-29T04:08:17.264Z,6.38
2022-09-29T04:10:46.642Z,9.15
2022-09-29T04:13:17.706Z,15.48
2022-09-29T04:15:46.073Z,7.03
2022-09-29T04:18:18.613Z,6.38
2022-09-29T04:20:47.616Z,5.38
2022-09-29T04:23:14.022Z,5.65
2022-09-29T04:25:40.688Z,5.68
2022-09-29T04:28:07.475Z,5.25
2022-09-29T04:30:33.839Z,6.05
2022-09-29T04:33:00.200Z,5.80
2022-09-29T04:35:26.531Z,7.38
2022-09-29T04:37:57.446Z,6.28
2022-09-29T04:40:26.803Z,4.97
2022-09-29T04:42:53.269Z,5.82
2022-09-29T04:45:22.483Z,5.90
2022-09-29T04:47:48.795Z,5.95
2022-09-29T04:50:15.250Z,5.32
2022-09-29T04:52:43.401Z,7.38
2022-09-29T04:55:22.953Z,6.82
2022-09-29T04:57:55.794Z,5.22
2022-09-29T05:00:22.154Z,6.30
2022-09-29T05:02:50.011Z,5.82
2022-09-29T05:05:16.751Z,6.63
2022-09-29T05:07:45.913Z,6.55
2022-09-29T05:10:12.306Z,6.22
2022-09-29T05:12:38.618Z,6.78
2022-09-29T05:15:06.217Z,6.18
2022-09-29T05:17:33.270Z,6.20
2022-09-29T05:19:59.631Z,6.30
2022-09-29T05:22:26.063Z,5.10
2022-09-29T05:24:52.602Z,6.07
2022-09-29T05:27:19.079Z,5.10
2022-09-29T05:29:45.600Z,7.05
2022-09-29T05:32:12.499Z,6.25
2022-09-29T05:34:39.775Z,8.10
2022-09-29T05:37:06.276Z,5.43
2022-09-29T05:39:34.501Z,5.82
2022-09-29T05:42:06.351Z,5.95
2022-09-29T05:44:36.390Z,5.50
2022-09-29T05:47:02.943Z,13.48
2022-09-29T05:49:31.803Z,6.70
2022-09-29T05:51:58.540Z,5.72
2022-09-29T05:54:25.104Z,5.30
2022-09-29T05:56:51.474Z,5.43
2022-09-29T05:59:17.894Z,6.03
2022-09-29T06:01:44.305Z,5.32
2022-09-29T06:04:10.938Z,7.68
2022-09-29T06:06:40.062Z,5.55
2022-09-29T06:09:07.307Z,6.35
2022-09-29T06:11:33.935Z,7.80
2022-09-29T06:14:02.346Z,6.43
2022-09-29T06:16:30.468Z,7.28
2022-09-29T06:18:59.533Z,7.00
2022-09-29T06:21:30.673Z,8.27
2022-09-29T06:23:58.410Z,6.65
2022-09-29T06:26:27.053Z,6.22
2022-09-29T06:28:54.834Z,8.63
2022-09-29T06:31:24.629Z,9.07
2022-09-29T06:33:51.500Z,8.02
2022-09-29T06:36:40.012Z,8.52
2022-09-29T06:39:10.309Z,8.07
2022-09-29T06:41:36.661Z,7.82
2022-09-29T06:44:03.459Z,13.07
2022-09-29T06:46:30.443Z,8.70
2022-09-29T06:48:58.573Z,9.43
2022-09-29T06:51:37.756Z,10.43
2022-09-29T06:54:12.412Z,8.43
2022-09-29T06:56:39.817Z,8.88
2022-09-29T06:59:06.578Z,8.18
2022-09-29T07:01:33.013Z,9.50
2022-09-29T07:04:02.845Z,11.10
2022-09-29T07:06:29.854Z,8.40
2022-09-29T07:08:58.277Z,9.73
2022-09-29T07:11:26.200Z,9.07
2022-09-29T07:13:54.713Z,8.27
2022-09-29T07:16:25.321Z,8.95
2022-09-29T07:18:52.883Z,11.65
2022-09-29T07:21:21.990Z,9.68
2022-09-29T07:23:48.838Z,11.10
2022-09-29T07:26:19.242Z,12.18
2022-09-29T07:28:46.859Z,12.52
2022-09-29T07:31:16.425Z,11.23
2022-09-29T07:33:44.282Z,11.63
2022-09-29T07:36:10.999Z,12.00
2022-09-29T07:38:37.402Z,12.88
2022-09-29T07:41:05.965Z,10.55
2022-09-29T07:43:33.037Z,11.25
2022-09-29T07:46:02.873Z,13.82
2022-09-29T07:48:32.214Z,10.38
2022-09-29T07:51:12.765Z,13.35
2022-09-29T07:53:40.244Z,14.35
2022-09-29T07:56:12.070Z,13.23
2022-09-29T07:58:39.552Z,12.63
2022-09-29T08:01:10.474Z,13.13
2022-09-29T08:03:38.861Z,13.03
2022-09-29T08:06:07.282Z,12.95
2022-09-29T08:08:38.079Z,12.40
2022-09-29T08:11:12.619Z,10.80
2022-09-29T08:13:40.577Z,10.32
2022-09-29T08:16:11.026Z,10.10
2022-09-29T08:18:37.963Z,8.70
2022-09-29T08:21:08.018Z,9.32
2022-09-29T08:23:43.622Z,10.07
2022-09-29T08:26:19.239Z,9.43
2022-09-29T08:28:52.214Z,10.82
2022-09-29T08:31:25.563Z,8.55
2022-09-29T08:33:52.335Z,8.52
2022-09-29T08:36:20.547Z,9.70
2022-09-29T08:38:49.108Z,9.50
2022-09-29T08:41:56.227Z,9.43
2022-09-29T08:44:45.397Z,8.30
2022-09-29T08:47:26.686Z,8.25
2022-09-29T08:49:59.210Z,10.60
2022-09-29T08:52:42.056Z,9.27
2022-09-29T08:55:23.932Z,8.02
2022-09-29T08:57:58.324Z,5.90
2022-09-29T09:00:38.779Z,9.95
2022-09-29T09:03:24.770Z,8.27
2022-09-29T09:06:12.216Z,7.40
2022-09-29T09:09:09.994Z,10.25
2022-09-29T09:11:52.595Z,9.57
2022-09-29T09:14:18.909Z,8.07
2022-09-29T09:16:58.211Z,8.45
2022-09-29T09:19:47.147Z,7.43
2022-09-29T09:22:22.664Z,7.78
2022-09-29T09:25:01.488Z,7.30
2022-09-29T09:27:34.571Z,8.43
2022-09-29T09:30:13.661Z,6.72
2022-09-29T09:32:49.814Z,6.28
2022-09-29T09:35:28.258Z,5.60
2022-09-29T09:38:00.453Z,6.20
2022-09-29T09:40:31.998Z,8.00
2022-09-29T09:43:14.442Z,6.47
2022-09-29T09:46:23.768Z,6.97
2022-09-29T09:48:58.645Z,6.05
2022-09-29T09:51:24.969Z,8.88
2022-09-29T09:53:54.852Z,6.75
2022-09-29T09:56:36.318Z,7.20
2022-09-29T10:01:50.329Z,6.15
2022-09-29T10:04:16.925Z,5.28
2022-09-29T10:06:43.586Z,6.72
2022-09-29T10:09:14.813Z,7.07
2022-09-29T10:14:15.614Z,4.53
2022-09-29T10:16:54.892Z,5.90
2022-09-29T10:19:45.120Z,5.20
2022-09-29T10:22:15.240Z,7.38
2022-09-29T10:24:41.744Z,4.93
2022-09-29T10:27:08.286Z,5.93
2022-09-29T10:29:42.375Z,5.72
2022-09-29T10:32:10.121Z,4.10
2022-09-29T10:34:40.367Z,4.32
2022-09-29T10:37:35.895Z,4.90
2022-09-29T10:40:14.766Z,6.53
2022-09-29T10:42:43.547Z,6.18
2022-09-29T10:45:14.883Z,3.63
2022-09-29T10:48:06.473Z,3.05
2022-09-29T10:53:34.878Z,2.42
2022-09-29T10:56:19.484Z,2.30
2022-09-29T10:59:00.238Z,2.85
2022-09-29T11:01:32.776Z,3.55
2022-09-29T11:04:03.990Z,2.33
2022-09-29T11:06:38.391Z,2.03
2022-09-29T11:09:27.050Z,2.63
2022-09-29T11:12:00.389Z,3.58
2022-09-29T11:14:37.506Z,2.83
2022-09-29T11:17:24.075Z,2.72
2022-09-29T11:19:52.609Z,2.53
2022-09-29T11:22:21.938Z,1.50
2022-09-29T11:25:09.408Z,0.90
2022-09-29T11:28:13.304Z,1.90
2022-09-29T11:31:00.787Z,3.03
2022-09-29T11:33:48.590Z,1.77
2022-09-29T11:36:36.073Z,2.95
2022-09-29T11:39:21.324Z,1.83
2022-09-29T11:42:12.457Z,2.13
2022-09-29T11:44:58.189Z,1.80
2022-09-29T11:47:47.775Z,1.40
2022-09-29T11:50:38.497Z,2.55
2022-09-29T11:53:26.405Z,2.85
2022-09-29T11:56:12.536Z,2.97
2022-09-29T11:58:54.117Z,3.05
2022-09-29T12:01:42.794Z,2.63
2022-09-29T12:04:12.119Z,1.52
2022-09-29T12:06:54.862Z,3.42
2022-09-29T12:09:33.986Z,1.73
2022-09-29T12:12:24.926Z,2.38
2022-09-29T12:15:45.509Z,5.18
2022-09-29T12:18:18.656Z,1.92
2022-09-29T12:20:48.985Z,2.13
2022-09-29T12:23:19.756Z,1.83
2022-09-29T12:26:11.072Z,2.03
2022-09-29T12:28:45.750Z,1.23
2022-09-29T12:31:27.874Z,2.30
2022-09-29T12:34:11.129Z,3.45
2022-09-29T12:36:50.150Z,2.72
2022-09-29T12:39:27.255Z,2.13
2022-09-29T12:42:13.627Z,3.08
2022-09-29T12:44:48.023Z,2.63
2022-09-29T12:47:38.218Z,1.90
2022-09-29T12:50:29.027Z,3.10
2022-09-29T12:53:15.967Z,2.40
2022-09-29T12:56:16.307Z,1.98
2022-09-29T12:58:48.344Z,2.03
2022-09-29T13:01:31.861Z,2.03
2022-09-29T13:04:26.312Z,2.22
2022-09-29T13:07:17.123Z,1.38
2022-09-29T13:10:11.354Z,1.67
2022-09-29T13:13:15.368Z,1.52
2022-09-29T13:16:12.478Z,2.10
2022-09-29T13:19:26.069Z,1.85
2022-09-29T13:22:27.201Z,1.55
2022-09-29T13:25:07.876Z,2.20
2022-09-29T13:27:42.348Z,3.53
2022-09-29T13:30:14.866Z,3.35
2022-09-29T13:32:51.162Z,3.08
2022-09-29T13:35:24.556Z,2.88
2022-09-29T13:37:56.910Z,4.20
2022-09-29T13:40:27.367Z,2.08
2022-09-29T13:42:59.923Z,2.17
2022-09-29T13:45:34.268Z,2.42
2022-09-29T13:48:03.511Z,2.10
2022-09-29T13:50:49.518Z,2.28
2022-09-29T13:53:19.055Z,1.95
2022-09-29T13:56:04.886Z,2.28
2022-09-29T13:58:32.394Z,1.85
2022-09-29T14:01:01.829Z,2.00
2022-09-29T14:03:37.154Z,2.13
2022-09-29T14:06:17.108Z,1.27
2022-09-29T14:09:16.298Z,2.33
2022-09-29T14:11:56.136Z,1.77
2022-09-29T14:14:44.687Z,1.80
2022-09-29T14:17:44.299Z,2.38
2022-09-29T14:20:22.116Z,1.60
2022-09-29T14:22:55.293Z,1.98
2022-09-29T14:25:29.540Z,1.20
2022-09-29T14:27:57.822Z,1.65
2022-09-29T14:30:35.043Z,1.90
2022-09-29T14:33:16.798Z,2.35
2022-09-29T14:35:59.491Z,2.38
2022-09-29T14:38:25.906Z,2.65
2022-09-29T14:41:05.717Z,2.55
2022-09-29T14:44:07.339Z,1.95
2022-09-29T14:47:03.170Z,2.05
2022-09-29T14:49:58.424Z,1.98
2022-09-29T14:52:42.890Z,3.85
2022-09-29T14:55:31.050Z,1.90
2022-09-29T14:58:12.400Z,1.73
2022-09-29T15:01:00.615Z,1.13
2022-09-29T15:03:35.316Z,2.05
2022-09-29T15:06:06.764Z,4.38
2022-09-29T15:08:35.518Z,2.28
2022-09-29T15:11:03.872Z,3.15
2022-09-29T15:13:31.609Z,1.65
2022-09-29T15:16:15.078Z,2.25
2022-09-29T15:19:06.014Z,1.52
2022-09-29T15:21:42.242Z,2.35
2022-09-29T15:24:12.908Z,1.65
2022-09-29T15:26:39.334Z,1.20
2022-09-29T15:29:07.811Z,3.88
2022-09-29T15:31:34.806Z,3.38
2022-09-29T15:34:04.192Z,2.35
2022-09-29T15:36:37.162Z,3.47
2022-09-29T15:39:07.604Z,1.85
2022-09-29T15:41:35.126Z,2.47
2022-09-29T15:44:27.955Z,2.53
2022-09-29T15:46:57.796Z,1.50
2022-09-29T15:49:28.590Z,1.23
2022-09-29T15:52:04.314Z,1.77
2022-09-29T15:54:38.845Z,3.47
2022-09-29T15:57:24.956Z,2.20
2022-09-29T15:59:54.163Z,2.15
2022-09-29T16:02:30.364Z,3.28
2022-09-29T16:05:02.176Z,2.40
2022-09-29T16:07:35.232Z,2.83
2022-09-29T16:10:14.669Z,2.55
2022-09-29T16:12:48.736Z,2.45
2022-09-29T16:15:48.206Z,1.45
2022-09-29T16:18:31.795Z,1.63
2022-09-29T16:21:04.539Z,1.63
2022-09-29T16:23:51.518Z,2.58
2022-09-29T16:26:37.190Z,2.88
2022-09-29T16:29:09.329Z,4.32
2022-09-29T16:31:47.176Z,4.18
2022-09-29T16:34:24.927Z,3.75
2022-09-29T16:37:02.578Z,6.65
2022-09-29T16:39:43.222Z,4.40
2022-09-29T16:42:26.912Z,4.78
2022-09-29T16:44:55.746Z,4.30
2022-09-29T16:47:28.257Z,3.65
2022-09-29T16:50:09.274Z,2.90
2022-09-29T16:52:50.673Z,2.85
2022-09-29T16:55:17.235Z,5.28
2022-09-29T16:58:01.804Z,3.58
2022-09-29T17:00:29.035Z,3.13
2022-09-29T17:02:56.806Z,4.07
2022-09-29T17:05:27.361Z,5.03
2022-09-29T17:08:01.308Z,4.85
2022-09-29T17:10:27.729Z,6.57
2022-09-29T17:12:55.207Z,6.18
2022-09-29T17:15:22.504Z,6.47
2022-09-29T17:17:50.743Z,5.70
2022-09-29T17:20:20.178Z,7.40
2022-09-29T17:22:47.007Z,5.78
2022-09-29T17:25:13.839Z,5.68
2022-09-29T17:28:02.323Z,8.02
2022-09-29T17:30:28.723Z,9.75
2022-09-29T17:32:58.943Z,9.05
2022-09-29T17:35:29.025Z,8.52
2022-09-29T17:38:04.005Z,9.00
2022-09-29T17:40:34.902Z,8.32
2022-09-29T17:43:01.745Z,8.10
2022-09-29T17:45:35.291Z,9.50
2022-09-29T17:48:02.696Z,8.85
2022-09-29T17:50:41.490Z,8.35
2022-09-29T17:53:17.513Z,8.25
2022-09-29T17:55:48.966Z,7.10
2022-09-29T17:58:16.683Z,5.63
2022-09-29T18:01:03.247Z,5.68
2022-09-29T18:03:29.586Z,5.20
2022-09-29T18:05:56.749Z,4.63
2022-09-29T18:08:25.842Z,6.75
2022-09-29T18:11:00.393Z,9.70
2022-09-29T18:13:29.311Z,27.13
2022-09-29T18:15:56.461Z,27.25
2022-09-29T18:18:23.295Z,12.48
2022-09-29T18:20:50.540Z,13.65
2022-09-29T18:23:23.862Z,14.27
2022-09-29T18:25:51.482Z,19.13
2022-09-29T18:28:18.449Z,18.33
2022-09-29T18:30:47.638Z,14.80
2022-09-29T18:33:41.233Z,10.18
2022-09-29T18:36:10.350Z,8.35
2022-09-29T18:38:36.957Z,5.60
2022-09-29T18:41:03.766Z,8.18
2022-09-29T18:43:30.595Z,11.80
2022-09-29T18:45:58.867Z,10.43
2022-09-29T18:48:25.273Z,9.98
2022-09-29T18:50:53.317Z,8.77
2022-09-29T18:53:21.472Z,9.00
2022-09-29T18:55:52.306Z,11.82
2022-09-29T18:58:26.220Z,11.13
2022-09-29T19:00:55.606Z,12.63
2022-09-29T19:03:28.006Z,12.15
2022-09-29T19:05:58.580Z,14.02
2022-09-29T19:08:25.200Z,13.52
2022-09-29T19:10:58.495Z,21.80
2022-09-29T19:13:29.144Z,19.10
2022-09-29T19:15:57.442Z,15.32
2022-09-29T19:18:25.219Z,14.27
2022-09-29T19:20:56.275Z,13.98
2022-09-29T19:23:24.060Z,21.92
2022-09-29T19:25:51.851Z,22.77
2022-09-29T19:28:20.199Z,15.18
2022-09-29T19:30:48.687Z,13.20
2022-09-29T19:33:19.233Z,11.77
2022-09-29T19:35:48.492Z,14.27
2022-09-29T19:38:15.749Z,25.48
2022-09-29T19:40:45.819Z,18.38
2022-09-29T19:43:14.453Z,20.35
2022-09-29T19:45:42.398Z,18.40
2022-09-29T19:48:16.661Z,14.07
2022-09-29T19:51:02.344Z,14.45
2022-09-29T19:53:29.225Z,11.68
2022-09-29T19:55:55.882Z,10.73
2022-09-29T19:58:23.648Z,10.68
2022-09-29T20:00:54.757Z,11.93
2022-09-29T20:03:21.364Z,17.83
2022-09-29T20:05:50.542Z,15.52
2022-09-29T20:08:16.896Z,13.88
2022-09-29T20:10:44.686Z,13.10
2022-09-29T20:13:11.687Z,17.17
2022-09-29T20:15:41.748Z,14.90
2022-09-29T20:18:08.555Z,15.68
2022-09-29T20:20:37.541Z,12.73
2022-09-29T20:23:04.044Z,9.52
2022-09-29T20:25:30.367Z,7.57
2022-09-29T20:27:58.914Z,8.18
2022-09-29T20:30:26.352Z,8.07
2022-09-29T20:32:52.734Z,5.18
2022-09-29T20:35:19.359Z,10.75
2022-09-29T20:37:49.622Z,10.73
2022-09-29T20:40:19.257Z,8.90
2022-09-29T20:42:48.781Z,11.57
2022-09-29T20:45:16.201Z,10.00
2022-09-29T20:47:42.598Z,8.30
2022-09-29T20:50:10.132Z,10.82
2022-09-29T20:52:37.159Z,14.15
2022-09-29T20:55:03.883Z,14.38
2022-09-29T20:57:31.882Z,15.95
2022-09-29T20:59:58.295Z,15.95
2022-09-29T21:02:25.267Z,14.35
2022-09-29T21:04:51.708Z,11.13
2022-09-29T21:07:36.114Z,13.20
2022-09-29T21:10:03.960Z,11.43
2022-09-29T21:12:32.011Z,12.65
2022-09-29T21:14:59.683Z,10.75
2022-09-29T21:17:26.523Z,10.70
2022-09-29T21:19:52.844Z,10.35
2022-09-29T21:22:19.242Z,11.90
2022-09-29T21:24:45.568Z,9.15
2022-09-29T21:27:11.939Z,9.95
2022-09-29T21:29:38.339Z,11.60
2022-09-29T21:32:04.831Z,13.20
2022-09-29T21:34:31.340Z,11.10
2022-09-29T21:36:57.832Z,9.20
2022-09-29T21:39:24.168Z,9.10
2022-09-29T21:41:50.582Z,12.20
2022-09-29T21:44:23.911Z,10.02
2022-09-29T21:46:50.609Z,10.80
2022-09-29T21:49:19.132Z,11.48
2022-09-29T21:51:48.264Z,11.32
2022-09-29T21:54:18.090Z,11.25
2022-09-29T21:56:46.957Z,10.88
2022-09-29T21:59:18.851Z,14.43
2022-09-29T22:01:48.587Z,12.45
2022-09-29T22:04:15.875Z,9.98
2022-09-29T22:06:45.242Z,9.65
2022-09-29T22:09:19.005Z,11.60
2022-09-29T22:11:47.357Z,10.25
2022-09-29T22:14:14.536Z,10.32
2022-09-29T22:16:41.019Z,9.73
2022-09-29T22:19:24.632Z,9.93
2022-09-29T22:21:53.613Z,11.43
2022-09-29T22:24:20.368Z,12.35
2022-09-29T22:26:46.791Z,10.48
2022-09-29T22:29:13.737Z,26.77
2022-09-29T22:31:40.935Z,11.10
2022-09-29T22:34:10.999Z,16.30
2022-09-29T22:36:37.359Z,13.07
2022-09-29T22:39:06.218Z,13.88
2022-09-29T22:41:33.162Z,12.98
2022-09-29T22:44:00.174Z,11.70
2022-09-29T22:46:29.157Z,15.65
2022-09-29T22:48:55.980Z,10.65
2022-09-29T22:51:25.227Z,11.45
2022-09-29T22:53:52.011Z,11.88
2022-09-29T22:56:28.121Z,12.23
2022-09-29T22:58:58.310Z,11.82
2022-09-29T23:01:26.259Z,14.07
2022-09-29T23:03:53.976Z,11.55
2022-09-29T23:06:20.454Z,12.68
2022-09-29T23:08:46.960Z,11.38
2022-09-29T23:11:19.333Z,14.55
2022-09-29T23:13:46.877Z,12.07
2022-09-29T23:16:15.267Z,12.23
2022-09-29T23:18:43.889Z,13.50
2022-09-29T23:21:12.904Z,11.00
2022-09-29T23:23:39.345Z,11.63
2022-09-29T23:26:06.224Z,12.65
2022-09-29T23:28:32.565Z,11.43
2022-09-29T23:31:03.666Z,13.57
2022-09-29T23:33:30.211Z,12.50
2022-09-29T23:36:11.189Z,12.18
2022-09-29T23:39:01.037Z,12.38
2022-09-29T23:41:29.834Z,11.43
2022-09-29T23:43:58.593Z,11.40
2022-09-29T23:46:27.084Z,13.02
2022-09-29T23:48:53.429Z,14.32
2022-09-29T23:51:19.837Z,13.20
2022-09-29T23:53:46.210Z,11.70
2022-09-29T23:56:12.863Z,13.43
2022-09-29T23:58:39.699Z,12.55
